Time;durP1;ratioP1;P1;durP2;ratioP2;P2;SDS_P1;SDS_P2;PMS_P1;PMS_P2;Temp;Humidity;BMP_temperature;BMP_pressure;BME280_temperature;BME280_humidity;BME280_pressure;Samples;Min_cycle;Max_cycle;Signal;HPM_P1;HPM_P2
2021/07/19 06:13:48;;;;;;;11.63;10.18;;;;;;;22.08;83.96;97997.33;1698983;79;20908;-75
2021/07/19 06:16:20;;;;;;;13.22;10.05;;;;;;;22.09;83.14;97982.59;1665400;86;21020;-71
2021/07/19 06:18:49;;;;;;;10.85;9.60;;;;;;;22.09;82.88;97986.20;1711337;83;20945;-71
2021/07/19 06:21:16;;;;;;;10.53;9.35;;;;;;;22.09;82.92;97989.42;1712776;83;20942;-71
2021/07/19 06:23:45;;;;;;;10.05;9.15;;;;;;;22.06;82.89;97985.70;1712757;83;20906;-71
2021/07/19 06:26:13;;;;;;;12.63;11.48;;;;;;;22.03;83.00;97984.22;1712891;83;21820;-71
2021/07/19 06:28:40;;;;;;;12.28;10.98;;;;;;;22.01;83.23;97975.38;1712561;83;20976;-70
2021/07/19 06:31:08;;;;;;;11.70;9.85;;;;;;;22.01;83.62;97972.63;1689215;83;21526;-71
2021/07/19 06:33:34;;;;;;;11.88;10.60;;;;;;;22.02;83.61;97965.58;1714893;83;20854;-71
2021/07/19 06:36:02;;;;;;;96.97;84.67;;;;;;;22.04;83.83;97965.91;1712698;83;21382;-70
2021/07/19 06:38:29;;;;;;;19.07;17.37;;;;;;;22.06;83.41;97966.56;1712724;83;21569;-69
2021/07/19 06:40:55;;;;;;;13.30;12.10;;;;;;;22.09;83.91;97968.92;1712750;83;20887;-67
2021/07/19 06:43:21;;;;;;;11.80;10.75;;;;;;;22.11;83.81;97962.77;1712702;83;20949;-70
2021/07/19 06:45:48;;;;;;;12.15;11.10;;;;;;;22.16;83.75;97968.50;1712717;83;21028;-70
2021/07/19 06:48:15;;;;;;;13.90;12.03;;;;;;;22.19;83.59;97970.32;1713224;83;20937;-71
2021/07/19 06:50:43;;;;;;;16.40;11.33;;;;;;;22.24;83.37;97975.22;1712741;83;21137;-70
2021/07/19 06:53:10;;;;;;;12.43;11.33;;;;;;;22.27;83.22;97977.58;1712849;83;20953;-70
2021/07/19 06:55:38;;;;;;;13.62;12.00;;;;;;;22.30;82.54;97990.91;1712481;83;21032;-71
2021/07/19 06:58:05;;;;;;;11.60;10.63;;;;;;;22.30;82.42;97996.37;1712883;83;20890;-70
2021/07/19 07:00:31;;;;;;;36.70;32.73;;;;;;;22.31;82.59;97993.11;1712955;83;21004;-72
2021/07/19 07:02:57;;;;;;;13.58;12.47;;;;;;;22.31;82.84;97992.61;1712712;83;21962;-71
2021/07/19 07:05:24;;;;;;;17.12;15.55;;;;;;;22.34;83.71;97999.06;1712549;83;20839;-72
2021/07/19 07:07:52;;;;;;;12.68;11.53;;;;;;;22.41;83.35;98007.88;1712832;83;20926;-72
2021/07/19 07:10:18;;;;;;;14.20;12.80;;;;;;;22.48;83.06;98010.16;1712848;83;21032;-72
2021/07/19 07:12:44;;;;;;;12.03;11.03;;;;;;;22.55;81.97;98011.09;1712931;83;20925;-72
2021/07/19 07:15:13;;;;;;;12.40;11.10;;;;;;;22.63;81.53;98016.98;1710758;82;20965;-72
2021/07/19 07:17:41;;;;;;;13.93;11.55;;;;;;;22.66;81.38;98016.59;1709872;84;20898;-75
2021/07/19 07:20:11;;;;;;;14.00;12.73;;;;;;;22.66;81.35;98029.75;1709837;84;21537;-69
2021/07/19 07:22:38;;;;;;;13.43;12.03;;;;;;;22.65;81.34;98028.05;1709904;84;21028;-73
2021/07/19 07:25:05;;;;;;;13.93;12.45;;;;;;;22.67;80.66;98041.04;1710297;84;20862;-72
2021/07/19 07:27:34;;;;;;;13.18;12.00;;;;;;;22.67;80.62;98042.91;1709695;84;21589;-71
2021/07/19 07:30:01;;;;;;;13.28;12.15;;;;;;;22.67;80.98;98046.52;1710240;84;20898;-72
2021/07/19 07:32:27;;;;;;;14.45;13.13;;;;;;;22.67;81.04;98056.59;1709909;84;20922;-71
2021/07/19 07:34:58;;;;;;;16.25;14.70;;;;;;;22.65;80.92;98060.89;1710132;84;20902;-72
2021/07/19 07:37:26;;;;;;;15.00;13.58;;;;;;;22.64;81.00;98066.05;1710018;84;20866;-72
2021/07/19 07:39:53;;;;;;;13.62;12.07;;;;;;;22.65;81.25;98062.26;1710183;84;21208;-72
2021/07/19 07:42:20;;;;;;;22.65;20.23;;;;;;;22.69;81.40;98064.11;1709855;84;20946;-72
2021/07/19 07:44:46;;;;;;;14.58;13.15;;;;;;;22.71;81.37;98064.23;1710273;84;21416;-71
2021/07/19 07:47:12;;;;;;;14.33;12.98;;;;;;;22.72;80.83;98069.20;1709870;84;20965;-69
2021/07/19 07:49:39;;;;;;;14.45;13.05;;;;;;;22.74;80.76;98065.75;1694176;84;20984;-71
2021/07/19 07:52:10;;;;;;;15.23;13.83;;;;;;;22.72;80.15;98071.94;1710144;84;21155;-71
2021/07/19 07:54:37;;;;;;;14.10;12.78;;;;;;;22.68;80.18;98071.98;1710018;84;20855;-77
2021/07/19 07:57:04;;;;;;;14.70;13.28;;;;;;;22.64;80.78;98075.64;1709997;84;20902;-69
2021/07/19 07:59:30;;;;;;;14.98;13.35;;;;;;;22.61;81.27;98076.02;1710142;84;20902;-69
2021/07/19 08:01:57;;;;;;;13.83;12.40;;;;;;;22.59;81.79;98080.81;1709922;84;21332;-70
2021/07/19 08:04:24;;;;;;;12.98;11.93;;;;;;;22.58;81.93;98085.11;1710123;84;21957;-66
2021/07/19 08:06:52;;;;;;;15.38;12.58;;;;;;;22.59;81.93;98084.92;1709755;84;21450;-74
2021/07/19 08:09:19;;;;;;;19.75;17.73;;;;;;;22.57;82.34;98082.06;1709842;84;20934;-73
2021/07/19 08:11:45;;;;;;;14.87;13.48;;;;;;;22.55;82.46;98086.36;1710075;83;20949;-74
2021/07/19 08:14:12;;;;;;;11.73;10.63;;;;;;;22.55;83.25;98089.94;1704928;83;20921;-74
2021/07/19 08:16:40;;;;;;;14.87;13.55;;;;;;;22.59;82.74;98086.28;1686144;85;21518;-74
2021/07/19 08:19:08;;;;;;;12.10;10.88;;;;;;;22.61;82.25;98082.86;1686317;84;20937;-75
2021/07/19 08:21:36;;;;;;;13.50;12.23;;;;;;;22.66;81.77;98078.19;1686345;85;20937;-75
2021/07/19 08:24:04;;;;;;;12.95;11.78;;;;;;;22.70;81.46;98073.50;1686631;85;20910;-74
2021/07/19 08:26:31;;;;;;;12.80;11.70;;;;;;;22.77;81.12;98069.97;1686325;85;21018;-71
2021/07/19 08:28:57;;;;;;;13.78;11.75;;;;;;;22.84;80.58;98072.27;1686561;85;21479;-71
2021/07/19 08:31:24;;;;;;;12.82;11.48;;;;;;;22.89;80.05;98069.30;1686279;85;20938;-72
2021/07/19 08:33:51;;;;;;;13.55;12.18;;;;;;;22.96;80.27;98068.53;1686316;85;20946;-72
2021/07/19 08:36:19;;;;;;;12.37;11.25;;;;;;;23.01;80.44;98065.52;1686365;84;21449;-71
2021/07/19 08:38:46;;;;;;;12.50;11.40;;;;;;;23.08;79.97;98056.89;1686554;84;20917;-72
2021/07/19 08:41:14;;;;;;;12.58;11.38;;;;;;;23.17;79.85;98054.85;1686443;85;21115;-73
2021/07/19 08:43:41;;;;;;;12.75;11.53;;;;;;;23.25;79.72;98051.98;1676660;85;20961;-72
2021/07/19 08:46:08;;;;;;;12.78;11.70;;;;;;;23.32;79.58;98053.94;1686350;85;20866;-73
2021/07/19 08:48:36;;;;;;;13.78;12.47;;;;;;;23.38;79.43;98047.17;1686285;85;20945;-72
2021/07/19 08:51:04;;;;;;;13.70;12.43;;;;;;;23.43;79.40;98046.05;1686253;85;20940;-73
2021/07/19 08:53:36;;;;;;;13.60;12.30;;;;;;;23.45;78.86;98046.69;1686376;85;21098;-73
2021/07/19 08:56:07;;;;;;;13.13;11.75;;;;;;;23.50;78.72;98043.35;1686365;84;20890;-74
2021/07/19 08:58:35;;;;;;;13.95;12.65;;;;;;;23.55;78.58;98044.97;1686335;85;20941;-72
2021/07/19 09:01:02;;;;;;;13.32;12.23;;;;;;;23.60;77.50;98038.89;1686245;85;20977;-72
2021/07/19 09:03:30;;;;;;;12.63;11.53;;;;;;;23.65;77.68;98039.16;1686334;84;20973;-71
2021/07/19 09:05:56;;;;;;;12.85;11.75;;;;;;;23.69;77.90;98039.08;1686271;85;22122;-72
2021/07/19 09:08:22;;;;;;;13.03;11.68;;;;;;;23.73;77.74;98028.05;1686396;84;21371;-72
2021/07/19 09:10:49;;;;;;;12.37;11.15;;;;;;;23.78;77.55;98029.66;1686300;85;20996;-74
2021/07/19 09:13:19;;;;;;;13.72;12.25;;;;;;;23.84;76.73;98028.55;1686384;85;20942;-72
2021/07/19 09:15:49;;;;;;;13.18;11.90;;;;;;;23.88;76.59;98023.00;1700497;83;20928;-73
2021/07/19 09:18:23;;;;;;;13.85;12.35;;;;;;;23.92;76.59;98015.55;1685378;84;21528;-73
2021/07/19 09:20:50;;;;;;;12.70;11.50;;;;;;;23.98;75.49;98015.24;1705250;84;20980;-71
2021/07/19 09:23:29;;;;;;;13.43;12.37;;;;;;;24.03;75.61;98012.77;1705555;84;21383;-72
2021/07/19 09:26:00;;;;;;;12.30;11.30;;;;;;;24.11;76.48;98017.24;1705203;84;21423;-72
2021/07/19 09:28:29;;;;;;;12.88;11.73;;;;;;;24.20;76.09;98015.16;1684849;84;21562;-72
2021/07/19 09:31:06;;;;;;;12.00;10.85;;;;;;;24.27;75.52;98014.14;1705333;84;21458;-73
2021/07/19 09:33:34;;;;;;;12.85;11.50;;;;;;;24.32;73.56;98010.79;1670312;85;20950;-70
2021/07/19 09:36:02;;;;;;;13.10;11.97;;;;;;;24.34;74.44;98008.68;1642761;87;20952;-70
2021/07/19 09:38:30;;;;;;;14.35;12.82;;;;;;;24.37;74.51;98010.18;1705585;84;21036;-72
2021/07/19 09:41:00;;;;;;;12.70;11.55;;;;;;;24.40;74.75;98001.00;1705191;84;20902;-71
2021/07/19 09:43:30;;;;;;;14.60;13.35;;;;;;;24.44;74.46;98009.16;1705731;84;21112;-71
2021/07/19 09:46:08;;;;;;;15.98;14.47;;;;;;;24.45;74.92;98010.00;1705182;84;20945;-71
2021/07/19 09:48:36;;;;;;;18.30;16.50;;;;;;;24.47;74.01;98011.50;1705436;84;20941;-73
2021/07/19 09:51:03;;;;;;;17.42;15.63;;;;;;;24.49;74.14;98013.50;1705301;84;20934;-71
2021/07/19 09:53:41;;;;;;;17.42;15.72;;;;;;;24.52;73.71;98011.72;1685609;84;21482;-72
2021/07/19 09:56:15;;;;;;;17.20;15.50;;;;;;;24.57;73.65;98010.30;1705256;84;21156;-72
2021/07/19 09:58:43;;;;;;;15.55;13.75;;;;;;;24.62;73.32;98014.64;1705565;84;20994;-73
2021/07/19 10:01:10;;;;;;;16.32;14.03;;;;;;;24.66;72.92;98020.02;1705321;84;20982;-73
2021/07/19 10:03:37;;;;;;;15.40;13.98;;;;;;;24.70;71.67;98021.31;1705227;84;20874;-73
2021/07/19 10:06:06;;;;;;;14.55;13.15;;;;;;;24.71;71.13;98023.02;1705406;84;20855;-70
2021/07/19 10:08:33;;;;;;;14.07;12.68;;;;;;;24.71;71.23;98021.64;1674564;84;21112;-70
2021/07/19 10:10:59;;;;;;;13.13;11.88;;;;;;;24.72;72.13;98013.70;1712926;83;21497;-72
2021/07/19 10:13:34;;;;;;;14.70;13.35;;;;;;;24.75;71.97;98022.06;1713151;83;20929;-69
2021/07/19 10:16:03;;;;;;;14.35;12.93;;;;;;;24.76;72.55;98028.73;1712766;83;20937;-70
2021/07/19 10:18:34;;;;;;;14.70;13.20;;;;;;;24.78;72.02;98026.61;1713007;83;20988;-70
2021/07/19 10:21:04;;;;;;;13.40;12.00;;;;;;;24.79;71.98;98028.31;1713031;83;21139;-71
2021/07/19 10:23:30;;;;;;;14.13;12.75;;;;;;;24.80;72.12;98035.52;1713242;83;21537;-70
2021/07/19 10:25:58;;;;;;;14.85;11.18;;;;;;;24.82;71.85;98032.56;1712949;83;21425;-70
2021/07/19 10:28:24;;;;;;;14.73;13.00;;;;;;;24.84;71.32;98036.77;1713285;83;20878;-70
2021/07/19 10:30:53;;;;;;;15.28;12.28;;;;;;;24.85;71.30;98037.10;1713247;83;20954;-68
2021/07/19 10:33:22;;;;;;;12.37;11.10;;;;;;;24.86;71.30;98034.69;1713224;83;21470;-71
2021/07/19 10:35:51;;;;;;;11.75;10.72;;;;;;;24.89;70.59;98036.98;1712969;83;20925;-71
2021/07/19 10:38:19;;;;;;;14.25;12.93;;;;;;;24.92;71.03;98041.23;1713481;83;20870;-70
2021/07/19 10:40:46;;;;;;;13.85;12.47;;;;;;;24.90;71.45;98040.60;1712957;83;20874;-70
2021/07/19 10:43:16;;;;;;;14.05;12.55;;;;;;;24.88;71.49;98042.18;1713405;83;20941;-70
2021/07/19 10:45:53;;;;;;;14.05;11.93;;;;;;;24.88;71.05;98038.59;1712898;83;21138;-71
2021/07/19 10:48:34;;;;;;;13.43;10.50;;;;;;;24.91;70.55;98040.06;1712968;83;20997;-68
2021/07/19 10:51:13;;;;;;;12.90;11.80;;;;;;;24.93;70.95;98035.20;1713317;83;20918;-70
2021/07/19 10:53:40;;;;;;;12.45;11.10;;;;;;;24.97;71.17;98033.74;1713357;83;20908;-68
2021/07/19 10:56:10;;;;;;;13.60;11.43;;;;;;;25.00;70.21;98031.95;1712994;83;20933;-69
2021/07/19 10:58:42;;;;;;;12.15;10.90;;;;;;;25.04;70.09;98030.50;1713297;83;21982;-69
2021/07/19 11:01:27;;;;;;;13.48;9.88;;;;;;;25.09;69.55;98036.20;1712802;83;20937;-69
2021/07/19 11:03:54;;;;;;;9.93;9.00;;;;;;;25.16;68.97;98036.20;1713344;83;21434;-69
2021/07/19 11:06:38;;;;;;;12.35;10.48;;;;;;;25.20;69.24;98035.58;1712881;83;20878;-69
2021/07/19 11:09:07;;;;;;;12.53;10.20;;;;;;;25.28;68.78;98036.45;1713370;83;20934;-69
2021/07/19 11:11:35;;;;;;;11.00;9.98;;;;;;;25.34;68.29;98032.36;1712989;83;21141;-69
2021/07/19 11:14:06;;;;;;;11.70;10.50;;;;;;;25.40;67.51;98027.39;1712847;83;20938;-69
2021/07/19 11:16:52;;;;;;;11.15;10.10;;;;;;;25.44;66.85;98030.56;1705252;83;20917;-69
2021/07/19 11:19:36;;;;;;;13.25;11.83;;;;;;;25.47;66.26;98031.52;1703541;84;20999;-68
2021/07/19 11:22:17;;;;;;;11.20;10.20;;;;;;;25.49;66.46;98034.89;1703492;84;20941;-69
2021/07/19 11:24:49;;;;;;;11.33;10.43;;;;;;;25.49;66.02;98030.77;1703919;84;21502;-69
2021/07/19 11:27:22;;;;;;;12.43;11.22;;;;;;;25.52;66.08;98029.50;1703482;83;21003;-69
2021/07/19 11:29:54;;;;;;;10.88;9.75;;;;;;;25.56;65.89;98028.88;1703850;84;20944;-69
2021/07/19 11:32:29;;;;;;;13.10;11.00;;;;;;;25.57;65.91;98029.20;1698200;84;21519;-70
2021/07/19 11:35:15;;;;;;;11.03;10.08;;;;;;;25.58;65.34;98037.75;1694229;84;20960;-69
2021/07/19 11:37:48;;;;;;;12.13;11.12;;;;;;;25.57;65.08;98030.58;1693839;83;20945;-68
2021/07/19 11:40:31;;;;;;;12.20;10.80;;;;;;;25.56;65.38;98026.13;1694006;83;20885;-69
2021/07/19 11:43:15;;;;;;;12.20;11.10;;;;;;;25.56;65.70;98029.41;1693922;84;20913;-69
2021/07/19 11:45:45;;;;;;;13.32;10.88;;;;;;;25.52;65.81;98028.97;1694191;83;20941;-68
2021/07/19 11:48:13;;;;;;;11.38;10.40;;;;;;;25.47;65.67;98019.68;1693811;84;20925;-69
2021/07/19 11:50:40;;;;;;;13.00;11.63;;;;;;;25.42;65.61;98028.56;1693665;84;21066;-68
2021/07/19 11:53:08;;;;;;;14.03;11.50;;;;;;;25.38;66.32;98025.36;1693727;84;20889;-69
2021/07/19 11:55:37;;;;;;;12.75;11.57;;;;;;;25.36;67.29;98023.91;1693959;84;21390;-68
2021/07/19 11:58:06;;;;;;;13.03;11.73;;;;;;;25.33;68.21;98024.32;1693612;84;21414;-68
2021/07/19 12:00:38;;;;;;;12.93;11.60;;;;;;;25.31;68.63;98021.78;1694470;83;20906;-69
2021/07/19 12:03:13;;;;;;;12.15;10.65;;;;;;;25.30;68.23;98011.83;1693968;83;21128;-69
2021/07/19 12:05:54;;;;;;;11.65;10.55;;;;;;;25.27;68.09;98011.38;1693201;84;20937;-69
2021/07/19 12:08:34;;;;;;;12.10;10.73;;;;;;;25.22;68.55;98018.88;1693249;84;20897;-70
2021/07/19 12:11:04;;;;;;;11.85;10.63;;;;;;;25.17;68.93;98014.02;1693897;83;20973;-69
2021/07/19 12:13:40;;;;;;;11.60;10.50;;;;;;;25.14;68.93;98006.73;1694127;83;20894;-68
2021/07/19 12:16:07;;;;;;;11.08;10.18;;;;;;;25.10;68.57;98002.19;1700347;83;21436;-68
2021/07/19 12:18:39;;;;;;;12.07;10.72;;;;;;;25.02;67.74;98000.98;1707819;84;20889;-70
2021/07/19 12:21:12;;;;;;;11.15;10.05;;;;;;;24.95;67.99;97996.87;1708436;83;20866;-66
2021/07/19 12:23:50;;;;;;;11.50;9.80;;;;;;;24.88;69.15;97988.63;1708093;84;20949;-69
2021/07/19 12:26:36;;;;;;;10.53;9.60;;;;;;;24.83;70.04;97989.78;1708153;84;20866;-70
2021/07/19 12:29:17;;;;;;;11.38;10.28;;;;;;;24.78;70.24;97984.05;1668009;85;21112;-75
2021/07/19 12:31:59;;;;;;;11.85;10.65;;;;;;;24.73;71.30;97982.45;1708049;83;20898;-71
2021/07/19 12:34:35;;;;;;;11.68;10.58;;;;;;;24.71;71.81;97985.95;1708402;84;20988;-71
2021/07/19 12:37:06;;;;;;;9.73;8.88;;;;;;;24.74;71.90;97982.78;1707768;83;20942;-71
2021/07/19 12:39:41;;;;;;;11.40;10.30;;;;;;;24.79;71.52;97977.51;1707960;84;20866;-72
2021/07/19 12:42:15;;;;;;;11.12;10.23;;;;;;;24.85;71.09;97975.30;1708742;83;21090;-71
2021/07/19 12:44:51;;;;;;;11.70;10.55;;;;;;;24.93;70.39;97970.65;1708241;84;20993;-70
2021/07/19 12:47:19;;;;;;;12.60;10.60;;;;;;;25.00;70.52;97961.36;1708073;84;20917;-71
2021/07/19 12:49:46;;;;;;;12.40;10.03;;;;;;;25.09;71.04;97967.52;1708151;84;20914;-70
2021/07/19 12:52:25;;;;;;;10.00;9.20;;;;;;;25.19;69.73;97961.59;1708586;84;20989;-70
2021/07/19 12:55:12;;;;;;;11.73;10.53;;;;;;;25.31;68.52;97961.86;1688173;84;21779;-70
2021/07/19 12:57:44;;;;;;;10.78;9.70;;;;;;;25.42;68.25;97958.46;1707995;84;20902;-71
2021/07/19 13:00:14;;;;;;;10.95;9.85;;;;;;;25.52;68.22;97957.48;1707854;83;20909;-71
2021/07/19 13:02:41;;;;;;;11.53;10.15;;;;;;;25.63;66.84;97949.12;1708218;84;21434;-71
2021/07/19 13:05:15;;;;;;;11.00;9.78;;;;;;;25.73;66.12;97943.16;1708377;84;20906;-70
2021/07/19 13:07:42;;;;;;;9.33;8.53;;;;;;;25.81;65.33;97928.34;1708281;84;21518;-70
2021/07/19 13:10:14;;;;;;;10.23;6.92;;;;;;;25.90;65.61;97936.13;1667617;85;21658;-68
2021/07/19 13:13:00;;;;;;;5.12;4.72;;;;;;;25.88;66.65;97920.39;1668795;84;20913;-67
2021/07/19 13:15:34;;;;;;;3.95;3.65;;;;;;;25.80;66.50;97937.13;1669195;84;20925;-67
2021/07/19 13:18:10;;;;;;;4.47;3.80;;;;;;;25.60;66.12;97932.53;1715116;83;20945;-65
2021/07/19 13:20:38;;;;;;;4.42;3.20;;;;;;;25.38;65.83;97930.53;1705839;83;21100;-69
2021/07/19 13:23:18;;;;;;;3.33;3.02;;;;;;;25.19;65.67;97925.33;1705163;84;20875;-67
2021/07/19 13:25:46;;;;;;;4.10;3.67;;;;;;;25.01;65.33;97930.64;1705223;84;20934;-68
2021/07/19 13:28:12;;;;;;;4.17;3.62;;;;;;;24.83;65.51;97929.36;1705393;84;20926;-67
2021/07/19 13:30:40;;;;;;;4.03;3.62;;;;;;;24.71;65.97;97929.66;1705416;84;21466;-68
2021/07/19 13:33:08;;;;;;;4.87;3.30;;;;;;;24.61;66.97;97921.83;1705376;84;21150;-73
2021/07/19 13:35:40;;;;;;;4.85;4.40;;;;;;;24.49;66.85;97902.33;1705467;82;20930;-72
2021/07/19 13:38:07;;;;;;;6.08;5.58;;;;;;;24.38;67.10;97895.25;1705285;84;20930;-70
2021/07/19 13:40:43;;;;;;;7.12;6.42;;;;;;;24.23;67.19;97902.25;1705518;84;20933;-70
2021/07/19 13:43:20;;;;;;;6.75;5.72;;;;;;;24.10;67.55;97909.38;1705543;84;21457;-71
2021/07/19 13:45:47;;;;;;;9.88;6.85;;;;;;;24.00;68.26;97915.80;1705678;84;21111;-71
2021/07/19 13:48:14;;;;;;;7.25;6.60;;;;;;;23.95;68.89;97934.23;1705386;84;21315;-72
2021/07/19 13:50:41;;;;;;;8.83;7.05;;;;;;;23.89;68.81;97937.78;1705398;84;21435;-71
2021/07/19 13:53:07;;;;;;;8.33;6.87;;;;;;;23.86;68.50;97942.30;1705397;84;21431;-70
2021/07/19 13:55:38;;;;;;;6.80;6.10;;;;;;;23.85;68.98;97943.87;1705355;84;20944;-71
2021/07/19 13:58:05;;;;;;;7.40;6.12;;;;;;;23.86;68.66;97948.32;1705458;84;21527;-71
2021/07/19 14:00:33;;;;;;;6.50;5.90;;;;;;;23.87;68.33;97941.77;1705422;83;20883;-72
2021/07/19 14:03:00;;;;;;;7.87;7.17;;;;;;;23.88;67.72;97933.88;1705556;84;20966;-71
2021/07/19 14:05:27;;;;;;;7.33;6.72;;;;;;;23.89;68.29;97929.56;1705372;84;20902;-73
2021/07/19 14:07:56;;;;;;;8.03;6.90;;;;;;;23.92;67.23;97931.89;1705426;84;20934;-73
2021/07/19 14:10:22;;;;;;;9.58;7.22;;;;;;;23.94;67.15;97928.95;1705507;84;21815;-71
2021/07/19 14:12:50;;;;;;;6.70;6.10;;;;;;;23.96;67.79;97932.33;1705303;83;21498;-72
2021/07/19 14:15:19;;;;;;;8.58;7.15;;;;;;;23.97;68.11;97934.03;1705424;84;21340;-72
2021/07/19 14:17:46;;;;;;;7.30;6.60;;;;;;;23.98;67.99;97925.59;1705329;84;20938;-73
2021/07/19 14:20:14;;;;;;;8.43;7.10;;;;;;;23.99;68.28;97912.72;1705295;84;21426;-72
2021/07/19 14:22:40;;;;;;;7.12;6.53;;;;;;;24.01;68.44;97917.47;1705455;84;21968;-72
2021/07/19 14:25:07;;;;;;;7.55;6.92;;;;;;;24.02;68.44;97912.84;1705274;83;21428;-73
2021/07/19 14:27:35;;;;;;;11.35;6.70;;;;;;;24.01;68.13;97916.62;1705345;84;20906;-73
2021/07/19 14:30:03;;;;;;;6.97;6.37;;;;;;;24.02;68.60;97911.48;1705463;84;21399;-71
2021/07/19 14:32:29;;;;;;;8.05;7.25;;;;;;;24.02;68.26;97916.42;1705309;84;20922;-70
2021/07/19 14:34:56;;;;;;;8.45;6.72;;;;;;;24.01;67.83;97924.32;1705742;83;21119;-71
2021/07/19 14:37:22;;;;;;;7.20;6.30;;;;;;;24.00;67.95;97930.88;1705462;84;20917;-70
2021/07/19 14:39:49;;;;;;;7.25;6.62;;;;;;;23.99;68.28;97937.41;1705561;84;20981;-70
2021/07/19 14:42:15;;;;;;;8.03;7.30;;;;;;;23.98;68.22;97946.17;1705431;84;20906;-71
2021/07/19 14:44:44;;;;;;;9.78;8.10;;;;;;;23.97;68.99;97951.32;1705735;84;20993;-70
2021/07/19 14:47:10;;;;;;;8.10;7.35;;;;;;;23.96;69.80;97965.23;1705449;84;21099;-72
2021/07/19 14:49:36;;;;;;;7.25;6.55;;;;;;;23.94;70.10;97967.34;1705388;84;20875;-70
2021/07/19 14:52:05;;;;;;;7.58;6.75;;;;;;;23.89;70.81;97969.86;1705450;84;20930;-71
2021/07/19 14:54:32;;;;;;;8.20;7.40;;;;;;;23.85;71.36;97978.16;1705151;84;20949;-71
2021/07/19 14:56:58;;;;;;;8.50;7.45;;;;;;;23.77;71.86;97975.84;1705541;84;20918;-71
2021/07/19 14:59:25;;;;;;;9.38;8.15;;;;;;;23.72;72.29;97974.78;1705386;84;21516;-71
2021/07/19 15:01:52;;;;;;;8.48;7.60;;;;;;;23.65;72.55;97974.75;1705069;84;47000;-70
2021/07/19 15:04:19;;;;;;;14.55;7.75;;;;;;;23.61;73.08;97972.06;1705551;84;20965;-70
2021/07/19 15:06:47;;;;;;;8.18;7.40;;;;;;;23.58;73.47;97969.73;1705298;84;20949;-71
2021/07/19 15:09:13;;;;;;;6.95;6.35;;;;;;;23.55;73.49;97972.87;1705294;84;20953;-70
2021/07/19 15:11:40;;;;;;;8.58;6.87;;;;;;;23.52;73.30;97963.67;1705674;84;21113;-72
2021/07/19 15:14:07;;;;;;;7.65;6.90;;;;;;;23.50;73.13;97957.55;1704783;84;20890;-70
2021/07/19 15:16:35;;;;;;;10.63;6.40;;;;;;;23.49;73.27;97954.48;1704131;83;20842;-71
2021/07/19 15:19:02;;;;;;;8.60;7.85;;;;;;;23.47;73.11;97946.45;1701318;84;20985;-69
2021/07/19 15:21:30;;;;;;;8.05;7.35;;;;;;;23.47;73.38;97945.08;1701524;84;20965;-70
2021/07/19 15:23:56;;;;;;;9.03;6.92;;;;;;;23.48;73.26;97945.92;1701481;84;21527;-70
2021/07/19 15:26:24;;;;;;;9.15;8.05;;;;;;;23.49;73.34;97942.14;1701650;84;20968;-70
2021/07/19 15:28:52;;;;;;;8.30;7.00;;;;;;;23.48;73.47;97944.55;1701285;84;20944;-67
2021/07/19 15:31:18;;;;;;;11.97;8.70;;;;;;;23.51;73.71;97948.27;1701633;84;20910;-69
2021/07/19 15:33:47;;;;;;;7.62;6.92;;;;;;;23.49;73.72;97943.52;1701440;84;20932;-68
2021/07/19 15:36:17;;;;;;;7.37;6.60;;;;;;;23.51;73.38;97940.04;1701343;84;23115;-69
2021/07/19 15:38:43;;;;;;;8.08;7.37;;;;;;;23.51;72.52;97938.17;1701351;84;20969;-68
2021/07/19 15:41:11;;;;;;;7.03;5.92;;;;;;;23.50;72.67;97937.84;1701617;84;20980;-69
2021/07/19 15:43:39;;;;;;;8.80;6.55;;;;;;;23.44;72.76;97935.39;1701627;84;20952;-69
2021/07/19 15:46:06;;;;;;;6.40;5.55;;;;;;;23.42;72.99;97944.31;1701323;84;20936;-68
2021/07/19 15:48:34;;;;;;;5.72;5.33;;;;;;;23.38;73.04;97955.37;1701202;84;21064;-68
2021/07/19 15:51:00;;;;;;;6.65;5.95;;;;;;;23.34;73.21;97965.02;1701184;84;20893;-68
2021/07/19 15:53:28;;;;;;;6.10;5.50;;;;;;;23.33;73.04;97960.58;1701758;84;20932;-68
2021/07/19 15:55:54;;;;;;;6.62;4.87;;;;;;;23.34;73.10;97955.97;1701230;84;20995;-68
2021/07/19 15:58:22;;;;;;;6.08;5.20;;;;;;;23.33;73.26;97963.31;1701347;84;20882;-68
2021/07/19 16:00:48;;;;;;;5.33;4.83;;;;;;;23.35;72.84;97962.62;1701310;84;21111;-69
2021/07/19 16:03:17;;;;;;;5.33;4.92;;;;;;;23.35;72.52;97963.98;1701561;84;20881;-67
2021/07/19 16:05:48;;;;;;;5.67;5.17;;;;;;;23.33;72.13;97967.96;1701216;84;20933;-68
2021/07/19 16:08:15;;;;;;;5.40;5.00;;;;;;;23.33;72.74;97969.33;1701274;84;20940;-68
2021/07/19 16:10:43;;;;;;;4.67;4.12;;;;;;;23.34;72.45;97966.39;1701410;84;20952;-68
2021/07/19 16:13:12;;;;;;;5.28;4.80;;;;;;;23.37;72.37;97964.63;1701514;84;21107;-68
2021/07/19 16:15:42;;;;;;;5.10;4.50;;;;;;;23.38;71.72;97964.96;1701128;84;21501;-69
2021/07/19 16:18:12;;;;;;;6.70;5.53;;;;;;;23.37;71.28;97966.00;1710053;83;20902;-70
2021/07/19 16:20:37;;;;;;;7.35;6.40;;;;;;;23.32;71.29;97963.02;1712784;83;20870;-68
2021/07/19 16:23:04;;;;;;;6.42;5.47;;;;;;;23.26;71.33;97953.69;1713014;83;21003;-67
2021/07/19 16:25:30;;;;;;;5.78;4.78;;;;;;;23.20;71.44;97950.36;1712869;83;21830;-69
2021/07/19 16:27:57;;;;;;;7.87;4.47;;;;;;;23.15;71.57;97945.17;1713085;83;20930;-69
2021/07/19 16:30:24;;;;;;;5.08;4.65;;;;;;;23.09;71.44;97950.91;1713195;83;20938;-69
2021/07/19 16:32:51;;;;;;;6.62;5.28;;;;;;;23.01;71.43;97946.38;1713239;83;20946;-69
2021/07/19 16:35:18;;;;;;;6.97;4.92;;;;;;;22.94;71.50;97941.39;1712990;83;20894;-69
2021/07/19 16:37:45;;;;;;;8.00;4.80;;;;;;;22.87;71.64;97933.62;1713046;83;21213;-69
2021/07/19 16:40:11;;;;;;;12.78;6.33;;;;;;;22.82;72.41;97938.84;1712816;83;20926;-69
2021/07/19 16:42:37;;;;;;;9.95;6.40;;;;;;;22.78;73.05;97938.90;1713270;83;20925;-68
2021/07/19 16:45:05;;;;;;;10.53;6.22;;;;;;;22.74;73.39;97945.30;1713035;83;21375;-69
2021/07/19 16:47:33;;;;;;;6.87;5.58;;;;;;;22.72;73.90;97956.44;1713069;83;20949;-69
2021/07/19 16:50:05;;;;;;;6.62;5.08;;;;;;;22.71;74.10;97962.95;1712847;83;21141;-69
2021/07/19 16:52:32;;;;;;;6.25;5.25;;;;;;;22.71;73.88;97972.53;1713124;83;20913;-70
2021/07/19 16:55:00;;;;;;;6.25;5.25;;;;;;;22.68;73.92;97975.66;1712963;83;20957;-70
2021/07/19 16:57:30;;;;;;;8.00;5.65;;;;;;;22.65;74.18;97979.30;1712852;83;20922;-69
2021/07/19 16:59:59;;;;;;;6.05;5.50;;;;;;;22.59;74.20;97975.44;1712971;83;20893;-68
2021/07/19 17:02:27;;;;;;;7.05;5.78;;;;;;;22.56;74.17;97979.94;1712893;83;21140;-68
2021/07/19 17:04:54;;;;;;;7.40;5.10;;;;;;;22.53;74.38;97972.11;1712811;83;21340;-70
2021/07/19 17:07:21;;;;;;;8.00;5.92;;;;;;;22.50;74.61;97973.89;1713008;83;20961;-70
2021/07/19 17:09:49;;;;;;;6.37;5.70;;;;;;;22.47;75.05;97977.85;1713007;83;20910;-70
2021/07/19 17:12:17;;;;;;;6.28;5.55;;;;;;;22.47;75.14;97993.44;1713397;83;20938;-70
2021/07/19 17:14:44;;;;;;;5.97;5.37;;;;;;;22.43;75.28;97991.58;1712980;83;21140;-71
2021/07/19 17:17:12;;;;;;;6.67;6.08;;;;;;;22.42;75.64;97997.24;1711239;83;20882;-69
2021/07/19 17:19:41;;;;;;;8.23;6.42;;;;;;;22.41;75.50;98002.41;1705383;84;20989;-69
2021/07/19 17:22:07;;;;;;;6.37;5.80;;;;;;;22.37;75.69;98001.42;1705684;84;20934;-69
2021/07/19 17:24:33;;;;;;;7.15;6.45;;;;;;;22.34;76.00;98004.54;1705777;84;20981;-70
2021/07/19 17:27:02;;;;;;;8.88;5.28;;;;;;;22.33;76.08;98002.83;1705411;84;20985;-68
2021/07/19 17:29:30;;;;;;;6.50;5.90;;;;;;;22.31;76.37;98004.92;1705375;84;21021;-70
2021/07/19 17:31:58;;;;;;;6.78;6.08;;;;;;;22.28;76.66;98010.73;1705412;84;20890;-71
2021/07/19 17:34:25;;;;;;;6.95;5.83;;;;;;;22.25;77.00;98004.81;1705658;84;21043;-69
2021/07/19 17:36:52;;;;;;;13.05;6.80;;;;;;;22.23;77.15;98006.37;1705381;84;20933;-69
2021/07/19 17:39:23;;;;;;;8.28;6.35;;;;;;;22.19;77.39;98002.30;1705781;84;21115;-70
2021/07/19 17:41:49;;;;;;;8.10;6.00;;;;;;;22.18;77.47;98011.04;1705568;84;21009;-70
2021/07/19 17:44:15;;;;;;;7.65;6.08;;;;;;;22.17;77.60;98011.23;1705625;84;20926;-70
2021/07/19 17:46:44;;;;;;;6.85;6.15;;;;;;;22.15;77.95;98014.66;1705353;84;20941;-69